sensor_id;sensor_type;location;lat;lon;timestamp;pressure;altitude;pressure_sealevel;temperature
72278;BMP280;61204;49.980;8.358;2023-01-04T00:02:05;101685.59;;;3.16
72278;BMP280;61204;49.980;8.358;2023-01-04T00:04:31;101682.41;;;3.12
72278;BMP280;61204;49.980;8.358;2023-01-04T00:06:57;101683.63;;;3.05
72278;BMP280;61204;49.980;8.358;2023-01-04T00:09:22;101680.69;;;3.03
72278;BMP280;61204;49.980;8.358;2023-01-04T00:11:47;101684.38;;;3.00
72278;BMP280;61204;49.980;8.358;2023-01-04T00:14:13;101678.00;;;2.92
72278;BMP280;61204;49.980;8.358;2023-01-04T00:16:41;101679.94;;;2.91
72278;BMP280;61204;49.980;8.358;2023-01-04T00:19:10;101674.75;;;2.99
72278;BMP280;61204;49.980;8.358;2023-01-04T00:21:36;101675.75;;;3.02
72278;BMP280;61204;49.980;8.358;2023-01-04T00:24:02;101679.19;;;3.02
72278;BMP280;61204;49.980;8.358;2023-01-04T00:26:32;101661.22;;;3.05
72278;BMP280;61204;49.980;8.358;2023-01-04T00:29:00;101662.44;;;3.09
72278;BMP280;61204;49.980;8.358;2023-01-04T00:31:29;101664.41;;;3.09
72278;BMP280;61204;49.980;8.358;2023-01-04T00:33:56;101660.94;;;3.14
72278;BMP280;61204;49.980;8.358;2023-01-04T00:36:25;101663.66;;;3.19
72278;BMP280;61204;49.980;8.358;2023-01-04T00:38:51;101657.00;;;3.20
72278;BMP280;61204;49.980;8.358;2023-01-04T00:44:15;101657.28;;;3.22
72278;BMP280;61204;49.980;8.358;2023-01-04T00:46:42;101656.50;;;3.28
72278;BMP280;61204;49.980;8.358;2023-01-04T00:49:09;101654.78;;;3.30
72278;BMP280;61204;49.980;8.358;2023-01-04T00:51:40;101646.63;;;3.30
72278;BMP280;61204;49.980;8.358;2023-01-04T00:54:07;101647.84;;;3.40
72278;BMP280;61204;49.980;8.358;2023-01-04T00:56:37;101643.19;;;3.41
72278;BMP280;61204;49.980;8.358;2023-01-04T00:59:05;101635.78;;;3.41
72278;BMP280;61204;49.980;8.358;2023-01-04T01:01:31;101626.41;;;3.42
72278;BMP280;61204;49.980;8.358;2023-01-04T01:04:02;101631.34;;;3.38
72278;BMP280;61204;49.980;8.358;2023-01-04T01:06:29;101631.09;;;3.36
72278;BMP280;61204;49.980;8.358;2023-01-04T01:08:56;101625.41;;;3.40
72278;BMP280;61204;49.980;8.358;2023-01-04T01:11:22;101622.47;;;3.38
72278;BMP280;61204;49.980;8.358;2023-01-04T01:13:49;101622.72;;;3.34
72278;BMP280;61204;49.980;8.358;2023-01-04T01:16:16;101624.94;;;3.30
72278;BMP280;61204;49.980;8.358;2023-01-04T01:18:48;101616.56;;;3.34
72278;BMP280;61204;49.980;8.358;2023-01-04T01:21:16;101614.81;;;3.42
72278;BMP280;61204;49.980;8.358;2023-01-04T01:23:49;101618.75;;;3.46
72278;BMP280;61204;49.980;8.358;2023-01-04T01:26:16;101615.97;;;3.58
72278;BMP280;61204;49.980;8.358;2023-01-04T01:28:45;101618.91;;;3.65
72278;BMP280;61204;49.980;8.358;2023-01-04T01:31:13;101605.84;;;3.64
72278;BMP280;61204;49.980;8.358;2023-01-04T01:33:57;101608.31;;;3.67
72278;BMP280;61204;49.980;8.358;2023-01-04T01:36:25;101616.41;;;3.73
72278;BMP280;61204;49.980;8.358;2023-01-04T01:38:51;101596.41;;;3.76
72278;BMP280;61204;49.980;8.358;2023-01-04T01:41:19;101590.75;;;3.74
72278;BMP280;61204;49.980;8.358;2023-01-04T01:43:53;101590.00;;;3.79
72278;BMP280;61204;49.980;8.358;2023-01-04T01:46:34;101603.78;;;3.81
72278;BMP280;61204;49.980;8.358;2023-01-04T01:49:05;101592.19;;;3.86
72278;BMP280;61204;49.980;8.358;2023-01-04T01:51:48;101602.03;;;3.89
72278;BMP280;61204;49.980;8.358;2023-01-04T01:54:34;101599.94;;;4.07
72278;BMP280;61204;49.980;8.358;2023-01-04T01:57:06;101590.75;;;4.15
72278;BMP280;61204;49.980;8.358;2023-01-04T01:59:37;101581.06;;;4.25
72278;BMP280;61204;49.980;8.358;2023-01-04T02:02:08;101589.94;;;4.26
72278;BMP280;61204;49.980;8.358;2023-01-04T02:04:36;101575.38;;;4.23
72278;BMP280;61204;49.980;8.358;2023-01-04T02:07:11;101575.63;;;4.25
72278;BMP280;61204;49.980;8.358;2023-01-04T02:09:44;101570.41;;;4.33
72278;BMP280;61204;49.980;8.358;2023-01-04T02:12:11;101570.66;;;4.30
72278;BMP280;61204;49.980;8.358;2023-01-04T02:14:38;101566.69;;;4.31
72278;BMP280;61204;49.980;8.358;2023-01-04T02:20:00;101556.56;;;4.31
72278;BMP280;61204;49.980;8.358;2023-01-04T02:26:26;101550.91;;;4.29
72278;BMP280;61204;49.980;8.358;2023-01-04T02:29:34;101541.31;;;4.28
72278;BMP280;61204;49.980;8.358;2023-01-04T02:32:43;101542.25;;;4.31
72278;BMP280;61204;49.980;8.358;2023-01-04T02:35:31;101544.50;;;4.32
72278;BMP280;61204;49.980;8.358;2023-01-04T02:38:21;101544.44;;;4.38
72278;BMP280;61204;49.980;8.358;2023-01-04T02:44:10;101527.19;;;4.60
72278;BMP280;61204;49.980;8.358;2023-01-04T02:47:18;101527.34;;;4.67
72278;BMP280;61204;49.980;8.358;2023-01-04T02:55:54;101503.47;;;4.85
72278;BMP280;61204;49.980;8.358;2023-01-04T03:11:06;101483.50;;;5.01
72278;BMP280;61204;49.980;8.358;2023-01-04T03:14:00;101480.03;;;5.00
72278;BMP280;61204;49.980;8.358;2023-01-04T03:16:38;101488.97;;;4.95
72278;BMP280;61204;49.980;8.358;2023-01-04T03:19:08;101492.00;;;4.92
72278;BMP280;61204;49.980;8.358;2023-01-04T03:21:40;101490.78;;;4.93
72278;BMP280;61204;49.980;8.358;2023-01-04T03:24:09;101484.50;;;4.98
72278;BMP280;61204;49.980;8.358;2023-01-04T03:27:02;101469.47;;;4.97
72278;BMP280;61204;49.980;8.358;2023-01-04T03:29:56;101476.00;;;5.07
72278;BMP280;61204;49.980;8.358;2023-01-04T03:32:51;101479.38;;;5.13
72278;BMP280;61204;49.980;8.358;2023-01-04T03:35:53;101475.34;;;5.20
72278;BMP280;61204;49.980;8.358;2023-01-04T03:42:30;101474.63;;;5.19
72278;BMP280;61204;49.980;8.358;2023-01-04T03:45:38;101461.81;;;5.14
72278;BMP280;61204;49.980;8.358;2023-01-04T03:48:32;101469.94;;;5.33
72278;BMP280;61204;49.980;8.358;2023-01-04T03:51:16;101460.06;;;5.17
72278;BMP280;61204;49.980;8.358;2023-01-04T03:56:45;101448.44;;;5.16
72278;BMP280;61204;49.980;8.358;2023-01-04T03:59:13;101443.69;;;5.22
72278;BMP280;61204;49.980;8.358;2023-01-04T04:01:38;101432.06;;;5.22
72278;BMP280;61204;49.980;8.358;2023-01-04T04:04:07;101431.69;;;5.31
72278;BMP280;61204;49.980;8.358;2023-01-04T04:06:52;101433.13;;;5.32
72278;BMP280;61204;49.980;8.358;2023-01-04T04:09:36;101436.53;;;5.38
72278;BMP280;61204;49.980;8.358;2023-01-04T04:12:01;101418.28;;;5.33
72278;BMP280;61204;49.980;8.358;2023-01-04T04:14:27;101411.75;;;5.42
72278;BMP280;61204;49.980;8.358;2023-01-04T04:16:53;101411.22;;;5.43
72278;BMP280;61204;49.980;8.358;2023-01-04T04:19:18;101421.06;;;5.46
72278;BMP280;61204;49.980;8.358;2023-01-04T04:21:44;101405.47;;;5.47
72278;BMP280;61204;49.980;8.358;2023-01-04T04:24:15;101392.59;;;5.47
72278;BMP280;61204;49.980;8.358;2023-01-04T04:26:48;101403.31;;;5.45
72278;BMP280;61204;49.980;8.358;2023-01-04T04:29:15;101404.22;;;5.48
72278;BMP280;61204;49.980;8.358;2023-01-04T04:31:41;101398.78;;;5.48
72278;BMP280;61204;49.980;8.358;2023-01-04T04:34:08;101392.59;;;5.47
72278;BMP280;61204;49.980;8.358;2023-01-04T04:36:36;101393.56;;;5.50
72278;BMP280;61204;49.980;8.358;2023-01-04T04:39:02;101390.59;;;5.48
72278;BMP280;61204;49.980;8.358;2023-01-04T04:41:27;101381.94;;;5.49
72278;BMP280;61204;49.980;8.358;2023-01-04T04:44:02;101386.66;;;5.49
72278;BMP280;61204;49.980;8.358;2023-01-04T04:46:29;101386.88;;;5.51
72278;BMP280;61204;49.980;8.358;2023-01-04T04:48:54;101381.56;;;5.59
72278;BMP280;61204;49.980;8.358;2023-01-04T04:51:20;101376.94;;;5.53
72278;BMP280;61204;49.980;8.358;2023-01-04T04:53:46;101375.69;;;5.54
72278;BMP280;61204;49.980;8.358;2023-01-04T04:56:12;101362.91;;;5.63
72278;BMP280;61204;49.980;8.358;2023-01-04T04:58:38;101369.22;;;5.58
72278;BMP280;61204;49.980;8.358;2023-01-04T05:01:06;101373.78;;;5.63
72278;BMP280;61204;49.980;8.358;2023-01-04T05:03:37;101364.91;;;5.62
72278;BMP280;61204;49.980;8.358;2023-01-04T05:06:02;101365.34;;;5.66
72278;BMP280;61204;49.980;8.358;2023-01-04T05:08:28;101362.31;;;5.70
72278;BMP280;61204;49.980;8.358;2023-01-04T05:10:54;101358.31;;;5.71
72278;BMP280;61204;49.980;8.358;2023-01-04T05:13:20;101354.88;;;5.70
72278;BMP280;61204;49.980;8.358;2023-01-04T05:15:46;101353.00;;;5.78
72278;BMP280;61204;49.980;8.358;2023-01-04T05:18:15;101343.59;;;5.79
72278;BMP280;61204;49.980;8.358;2023-01-04T05:20:45;101352.47;;;5.80
72278;BMP280;61204;49.980;8.358;2023-01-04T05:23:12;101340.03;;;5.85
72278;BMP280;61204;49.980;8.358;2023-01-04T05:25:39;101340.03;;;5.85
72278;BMP280;61204;49.980;8.358;2023-01-04T05:28:05;101342.75;;;5.85
72278;BMP280;61204;49.980;8.358;2023-01-04T05:30:37;101340.03;;;5.85
72278;BMP280;61204;49.980;8.358;2023-01-04T05:33:25;101337.06;;;5.83
72278;BMP280;61204;49.980;8.358;2023-01-04T05:35:54;101326.19;;;5.83
72278;BMP280;61204;49.980;8.358;2023-01-04T05:38:23;101324.31;;;5.77
72278;BMP280;61204;49.980;8.358;2023-01-04T05:40:49;101333.75;;;5.76
72278;BMP280;61204;49.980;8.358;2023-01-04T05:43:18;101331.63;;;5.83
72278;BMP280;61204;49.980;8.358;2023-01-04T05:45:48;101328.41;;;5.84
72278;BMP280;61204;49.980;8.358;2023-01-04T05:48:19;101326.41;;;5.85
72278;BMP280;61204;49.980;8.358;2023-01-04T05:50:47;101327.25;;;5.93
72278;BMP280;61204;49.980;8.358;2023-01-04T05:53:15;101335.75;;;5.89
72278;BMP280;61204;49.980;8.358;2023-01-04T05:55:43;101331.13;;;5.84
72278;BMP280;61204;49.980;8.358;2023-01-04T05:58:12;101318.25;;;5.85
72278;BMP280;61204;49.980;8.358;2023-01-04T06:00:37;101311.56;;;5.86
72278;BMP280;61204;49.980;8.358;2023-01-04T06:03:03;101306.03;;;5.91
72278;BMP280;61204;49.980;8.358;2023-01-04T06:05:28;101312.38;;;5.94
72278;BMP280;61204;49.980;8.358;2023-01-04T06:07:56;101328.69;;;5.94
72278;BMP280;61204;49.980;8.358;2023-01-04T06:10:21;101322.13;;;5.89
72278;BMP280;61204;49.980;8.358;2023-01-04T06:12:47;101325.69;;;5.84
72278;BMP280;61204;49.980;8.358;2023-01-04T06:15:13;101338.34;;;5.82
72278;BMP280;61204;49.980;8.358;2023-01-04T06:17:39;101328.63;;;5.73
72278;BMP280;61204;49.980;8.358;2023-01-04T06:20:05;101341.50;;;5.86
72278;BMP280;61204;49.980;8.358;2023-01-04T06:22:35;101341.69;;;6.01
72278;BMP280;61204;49.980;8.358;2023-01-04T06:25:01;101337.50;;;6.26
72278;BMP280;61204;49.980;8.358;2023-01-04T06:27:28;101341.75;;;6.35
72278;BMP280;61204;49.980;8.358;2023-01-04T06:29:53;101336.94;;;6.41
72278;BMP280;61204;49.980;8.358;2023-01-04T06:32:19;101329.81;;;6.38
72278;BMP280;61204;49.980;8.358;2023-01-04T06:34:45;101319.44;;;6.37
72278;BMP280;61204;49.980;8.358;2023-01-04T06:37:10;101312.34;;;6.34
72278;BMP280;61204;49.980;8.358;2023-01-04T06:39:36;101318.19;;;6.24
72278;BMP280;61204;49.980;8.358;2023-01-04T06:42:02;101310.78;;;6.25
72278;BMP280;61204;49.980;8.358;2023-01-04T06:44:51;101300.63;;;6.25
72278;BMP280;61204;49.980;8.358;2023-01-04T06:47:17;101296.44;;;6.11
72278;BMP280;61204;49.980;8.358;2023-01-04T06:49:42;101286.75;;;6.02
72278;BMP280;61204;49.980;8.358;2023-01-04T06:52:07;101277.50;;;5.92
72278;BMP280;61204;49.980;8.358;2023-01-04T06:54:33;101277.13;;;5.88
72278;BMP280;61204;49.980;8.358;2023-01-04T06:56:58;101266.00;;;5.86
72278;BMP280;61204;49.980;8.358;2023-01-04T06:59:24;101269.69;;;6.02
72278;BMP280;61204;49.980;8.358;2023-01-04T07:01:54;101268.50;;;6.11
72278;BMP280;61204;49.980;8.358;2023-01-04T07:04:19;101256.66;;;6.08
72278;BMP280;61204;49.980;8.358;2023-01-04T07:06:45;101255.28;;;6.15
72278;BMP280;61204;49.980;8.358;2023-01-04T07:09:10;101258.81;;;6.23
72278;BMP280;61204;49.980;8.358;2023-01-04T07:11:35;101254.09;;;6.23
72278;BMP280;61204;49.980;8.358;2023-01-04T07:14:03;101262.03;;;6.35
72278;BMP280;61204;49.980;8.358;2023-01-04T07:16:28;101255.22;;;6.41
72278;BMP280;61204;49.980;8.358;2023-01-04T07:18:54;101242.31;;;6.42
72278;BMP280;61204;49.980;8.358;2023-01-04T07:21:22;101230.75;;;6.49
72278;BMP280;61204;49.980;8.358;2023-01-04T07:23:49;101230.13;;;6.56
72278;BMP280;61204;49.980;8.358;2023-01-04T07:26:15;101229.38;;;6.55
72278;BMP280;61204;49.980;8.358;2023-01-04T07:28:40;101222.13;;;6.58
72278;BMP280;61204;49.980;8.358;2023-01-04T07:31:24;101228.84;;;6.78
72278;BMP280;61204;49.980;8.358;2023-01-04T07:33:49;101222.34;;;6.89
72278;BMP280;61204;49.980;8.358;2023-01-04T07:36:15;101220.25;;;6.95
72278;BMP280;61204;49.980;8.358;2023-01-04T07:38:40;101218.25;;;6.95
72278;BMP280;61204;49.980;8.358;2023-01-04T07:41:07;101231.59;;;7.06
72278;BMP280;61204;49.980;8.358;2023-01-04T07:43:33;101239.19;;;7.29
72278;BMP280;61204;49.980;8.358;2023-01-04T07:46:01;101235.97;;;7.38
72278;BMP280;61204;49.980;8.358;2023-01-04T07:48:28;101235.97;;;7.38
72278;BMP280;61204;49.980;8.358;2023-01-04T07:50:56;101239.13;;;7.50
72278;BMP280;61204;49.980;8.358;2023-01-04T07:53:24;101244.25;;;7.53
72278;BMP280;61204;49.980;8.358;2023-01-04T07:55:53;101236.06;;;7.53
72278;BMP280;61204;49.980;8.358;2023-01-04T07:58:21;101248.13;;;7.66
72278;BMP280;61204;49.980;8.358;2023-01-04T08:00:47;101256.53;;;7.75
72278;BMP280;61204;49.980;8.358;2023-01-04T08:03:12;101239.97;;;7.73
72278;BMP280;61204;49.980;8.358;2023-01-04T08:05:37;101257.06;;;7.74
72278;BMP280;61204;49.980;8.358;2023-01-04T08:08:06;101253.69;;;7.88
72278;BMP280;61204;49.980;8.358;2023-01-04T08:10:32;101249.50;;;7.87
72278;BMP280;61204;49.980;8.358;2023-01-04T08:12:58;101260.09;;;7.91
72278;BMP280;61204;49.980;8.358;2023-01-04T08:15:24;101247.88;;;7.92
72278;BMP280;61204;49.980;8.358;2023-01-04T08:17:50;101256.22;;;7.86
72278;BMP280;61204;49.980;8.358;2023-01-04T08:20:16;101253.13;;;7.90
72278;BMP280;61204;49.980;8.358;2023-01-04T08:22:43;101255.69;;;7.88
72278;BMP280;61204;49.980;8.358;2023-01-04T08:25:08;101250.97;;;7.96
72278;BMP280;61204;49.980;8.358;2023-01-04T08:27:34;101259.53;;;7.93
72278;BMP280;61204;49.980;8.358;2023-01-04T08:30:00;101251.34;;;7.93
72278;BMP280;61204;49.980;8.358;2023-01-04T08:32:25;101247.31;;;7.94
72278;BMP280;61204;49.980;8.358;2023-01-04T08:34:51;101239.72;;;8.00
72278;BMP280;61204;49.980;8.358;2023-01-04T08:37:18;101260.88;;;8.14
72278;BMP280;61204;49.980;8.358;2023-01-04T08:39:43;101261.59;;;8.15
72278;BMP280;61204;49.980;8.358;2023-01-04T08:42:09;101246.31;;;8.20
72278;BMP280;61204;49.980;8.358;2023-01-04T08:44:34;101272.00;;;8.32
72278;BMP280;61204;49.980;8.358;2023-01-04T08:47:00;101286.81;;;8.52
72278;BMP280;61204;49.980;8.358;2023-01-04T08:49:26;101283.53;;;8.61
72278;BMP280;61204;49.980;8.358;2023-01-04T08:51:51;101285.19;;;8.71
72278;BMP280;61204;49.980;8.358;2023-01-04T08:54:17;101300.66;;;8.77
72278;BMP280;61204;49.980;8.358;2023-01-04T08:56:43;101280.81;;;8.84
72278;BMP280;61204;49.980;8.358;2023-01-04T08:59:09;101273.16;;;8.90
72278;BMP280;61204;49.980;8.358;2023-01-04T09:01:37;101283.56;;;8.84
72278;BMP280;61204;49.980;8.358;2023-01-04T09:04:03;101275.16;;;8.89
72278;BMP280;61204;49.980;8.358;2023-01-04T09:06:29;101270.06;;;8.86
72278;BMP280;61204;49.980;8.358;2023-01-04T09:08:55;101278.44;;;8.80
72278;BMP280;61204;49.980;8.358;2023-01-04T09:11:22;101248.91;;;8.71
72278;BMP280;61204;49.980;8.358;2023-01-04T09:13:48;101255.66;;;8.85
72278;BMP280;61204;49.980;8.358;2023-01-04T09:16:20;101243.63;;;8.81
72278;BMP280;61204;49.980;8.358;2023-01-04T09:18:46;101233.41;;;8.81
72278;BMP280;61204;49.980;8.358;2023-01-04T09:21:12;101234.88;;;8.90
72278;BMP280;61204;49.980;8.358;2023-01-04T09:23:41;101231.22;;;8.87
72278;BMP280;61204;49.980;8.358;2023-01-04T09:26:09;101239.63;;;8.89
72278;BMP280;61204;49.980;8.358;2023-01-04T09:28:41;101239.44;;;8.95
72278;BMP280;61204;49.980;8.358;2023-01-04T09:31:08;101232.50;;;8.94
72278;BMP280;61204;49.980;8.358;2023-01-04T09:33:45;101232.13;;;9.05
72278;BMP280;61204;49.980;8.358;2023-01-04T09:36:12;101229.00;;;9.09
72278;BMP280;61204;49.980;8.358;2023-01-04T09:38:41;101220.78;;;9.09
72278;BMP280;61204;49.980;8.358;2023-01-04T09:43:44;101226.81;;;9.15
72278;BMP280;61204;49.980;8.358;2023-01-04T09:46:22;101224.97;;;9.17
72278;BMP280;61204;49.980;8.358;2023-01-04T09:49:41;101240.47;;;9.15
72278;BMP280;61204;49.980;8.358;2023-01-04T09:52:15;101216.03;;;9.24
72278;BMP280;61204;49.980;8.358;2023-01-04T09:54:56;101205.25;;;9.19
72278;BMP280;61204;49.980;8.358;2023-01-04T09:57:28;101211.63;;;9.21
72278;BMP280;61204;49.980;8.358;2023-01-04T10:00:01;101207.06;;;9.32
72278;BMP280;61204;49.980;8.358;2023-01-04T10:03:23;101207.94;;;9.34
72278;BMP280;61204;49.980;8.358;2023-01-04T10:05:29;101211.41;;;9.42
72278;BMP280;61204;49.980;8.358;2023-01-04T10:07:57;101216.84;;;9.50
72278;BMP280;61204;49.980;8.358;2023-01-04T10:11:06;101219.34;;;9.56
72278;BMP280;61204;49.980;8.358;2023-01-04T10:13:39;101219.19;;;9.53
72278;BMP280;61204;49.980;8.358;2023-01-04T10:19:04;101213.34;;;9.49
72278;BMP280;61204;49.980;8.358;2023-01-04T10:21:57;101209.00;;;9.46
72278;BMP280;61204;49.980;8.358;2023-01-04T10:27:42;101197.72;;;9.42
72278;BMP280;61204;49.980;8.358;2023-01-04T10:30:49;101189.53;;;9.35
72278;BMP280;61204;49.980;8.358;2023-01-04T10:33:45;101197.72;;;9.42
72278;BMP280;61204;49.980;8.358;2023-01-04T10:36:26;101194.06;;;9.40
72278;BMP280;61204;49.980;8.358;2023-01-04T10:38:59;101185.13;;;9.39
72278;BMP280;61204;49.980;8.358;2023-01-04T10:41:30;101173.47;;;9.39
72278;BMP280;61204;49.980;8.358;2023-01-04T10:44:24;101174.69;;;9.45
72278;BMP280;61204;49.980;8.358;2023-01-04T10:47:25;101173.81;;;9.43
72278;BMP280;61204;49.980;8.358;2023-01-04T10:50:24;101169.91;;;9.53
72278;BMP280;61204;49.980;8.358;2023-01-04T10:53:19;101156.03;;;9.59
72278;BMP280;61204;49.980;8.358;2023-01-04T10:56:02;101162.91;;;9.68
72278;BMP280;61204;49.980;8.358;2023-01-04T10:58:57;101149.41;;;9.70
72278;BMP280;61204;49.980;8.358;2023-01-04T11:02:25;101148.81;;;9.71
72278;BMP280;61204;49.980;8.358;2023-01-04T11:07:54;101149.81;;;9.84
72278;BMP280;61204;49.980;8.358;2023-01-04T11:10:41;101152.94;;;9.88
72278;BMP280;61204;49.980;8.358;2023-01-04T11:13:17;101146.88;;;9.89
72278;BMP280;61204;49.980;8.358;2023-01-04T11:15:42;101155.63;;;9.95
72278;BMP280;61204;49.980;8.358;2023-01-04T11:18:11;101143.56;;;9.91
72278;BMP280;61204;49.980;8.358;2023-01-04T11:20:38;101152.88;;;9.95
72278;BMP280;61204;49.980;8.358;2023-01-04T11:23:09;101148.84;;;9.96
72278;BMP280;61204;49.980;8.358;2023-01-04T11:25:41;101143.38;;;9.96
72278;BMP280;61204;49.980;8.358;2023-01-04T11:28:17;101136.06;;;9.91
72278;BMP280;61204;49.980;8.358;2023-01-04T11:33:56;101131.28;;;9.99
72278;BMP280;61204;49.980;8.358;2023-01-04T11:39:18;101105.78;;;9.89
72278;BMP280;61204;49.980;8.358;2023-01-04T11:41:53;101107.56;;;9.94
72278;BMP280;61204;49.980;8.358;2023-01-04T11:44:33;101105.50;;;10.02
72278;BMP280;61204;49.980;8.358;2023-01-04T11:47:19;101094.31;;;10.08
72278;BMP280;61204;49.980;8.358;2023-01-04T11:49:48;101091.41;;;10.06
72278;BMP280;61204;49.980;8.358;2023-01-04T11:54:51;101093.94;;;10.12
72278;BMP280;61204;49.980;8.358;2023-01-04T11:57:17;101092.41;;;10.18
72278;BMP280;61204;49.980;8.358;2023-01-04T11:59:44;101083.44;;;10.18
72278;BMP280;61204;49.980;8.358;2023-01-04T12:02:18;101076.69;;;10.19
72278;BMP280;61204;49.980;8.358;2023-01-04T12:04:53;101078.88;;;10.20
72278;BMP280;61204;49.980;8.358;2023-01-04T12:07:29;101074.34;;;10.15
72278;BMP280;61204;49.980;8.358;2023-01-04T12:09:58;101060.41;;;10.21
72278;BMP280;61204;49.980;8.358;2023-01-04T12:12:29;101061.69;;;10.20
72278;BMP280;61204;49.980;8.358;2023-01-04T12:15:01;101066.06;;;10.23
72278;BMP280;61204;49.980;8.358;2023-01-04T12:17:38;101063.88;;;10.21
72278;BMP280;61204;49.980;8.358;2023-01-04T12:20:17;101056.53;;;10.24
72278;BMP280;61204;49.980;8.358;2023-01-04T12:22:48;101053.66;;;10.22
72278;BMP280;61204;49.980;8.358;2023-01-04T12:25:34;101062.84;;;10.34
72278;BMP280;61204;49.980;8.358;2023-01-04T12:31:25;101060.81;;;10.34
72278;BMP280;61204;49.980;8.358;2023-01-04T12:33:47;101058.66;;;10.33
72278;BMP280;61204;49.980;8.358;2023-01-04T12:39:25;101054.03;;;10.35
72278;BMP280;61204;49.980;8.358;2023-01-04T12:50:02;101047.13;;;10.52
72278;BMP280;61204;49.980;8.358;2023-01-04T13:08:27;101011.88;;;10.48
72278;BMP280;61204;49.980;8.358;2023-01-04T13:10:57;101015.34;;;10.49
72278;BMP280;61204;49.980;8.358;2023-01-04T13:16:39;101013.78;;;10.55
72278;BMP280;61204;49.980;8.358;2023-01-04T13:19:21;101008.31;;;10.55
72278;BMP280;61204;49.980;8.358;2023-01-04T13:21:50;100999.59;;;10.49
72278;BMP280;61204;49.980;8.358;2023-01-04T13:26:47;100993.88;;;10.55
72278;BMP280;61204;49.980;8.358;2023-01-04T13:31:57;100994.75;;;10.57
72278;BMP280;61204;49.980;8.358;2023-01-04T13:37:26;100992.19;;;10.59
72278;BMP280;61204;49.980;8.358;2023-01-04T13:48:41;100976.78;;;10.64
72278;BMP280;61204;49.980;8.358;2023-01-04T13:51:44;100972.50;;;10.71
72278;BMP280;61204;49.980;8.358;2023-01-04T13:54:04;100970.56;;;10.64
72278;BMP280;61204;49.980;8.358;2023-01-04T13:56:41;100961.66;;;10.73
72278;BMP280;61204;49.980;8.358;2023-01-04T13:59:07;100964.69;;;10.77
72278;BMP280;61204;49.980;8.358;2023-01-04T14:01:37;100974.56;;;10.80
72278;BMP280;61204;49.980;8.358;2023-01-04T14:06:50;100965.81;;;10.74
72278;BMP280;61204;49.980;8.358;2023-01-04T14:09:53;100971.81;;;10.80
72278;BMP280;61204;49.980;8.358;2023-01-04T14:12:21;100978.16;;;10.82
72278;BMP280;61204;49.980;8.358;2023-01-04T14:14:57;100976.47;;;10.87
72278;BMP280;61204;49.980;8.358;2023-01-04T14:17:52;100966.63;;;10.84
72278;BMP280;61204;49.980;8.358;2023-01-04T14:33:32;100938.94;;;10.89
72278;BMP280;61204;49.980;8.358;2023-01-04T14:44:22;100949.59;;;10.85
72278;BMP280;61204;49.980;8.358;2023-01-04T14:46:56;100945.25;;;10.82
72278;BMP280;61204;49.980;8.358;2023-01-04T14:49:25;100948.72;;;10.83
72278;BMP280;61204;49.980;8.358;2023-01-04T14:51:58;100944.19;;;10.78
72278;BMP280;61204;49.980;8.358;2023-01-04T14:54:27;100950.59;;;10.80
72278;BMP280;61204;49.980;8.358;2023-01-04T14:56:56;100941.47;;;10.78
72278;BMP280;61204;49.980;8.358;2023-01-04T14:59:22;100948.66;;;10.73
72278;BMP280;61204;49.980;8.358;2023-01-04T15:01:52;100942.53;;;10.65
72278;BMP280;61204;49.980;8.358;2023-01-04T15:04:21;100935.47;;;10.62
72278;BMP280;61204;49.980;8.358;2023-01-04T15:06:54;100938.38;;;10.64
72278;BMP280;61204;49.980;8.358;2023-01-04T15:09:24;100933.44;;;10.62
72278;BMP280;61204;49.980;8.358;2023-01-04T15:11:51;100938.22;;;10.62
72278;BMP280;61204;49.980;8.358;2023-01-04T15:14:17;100927.72;;;10.68
72278;BMP280;61204;49.980;8.358;2023-01-04T15:16:43;100936.38;;;10.65
72278;BMP280;61204;49.980;8.358;2023-01-04T15:19:13;100936.19;;;10.62
72278;BMP280;61204;49.980;8.358;2023-01-04T15:21:40;100944.59;;;10.65
72278;BMP280;61204;49.980;8.358;2023-01-04T15:24:05;100937.66;;;10.64
72278;BMP280;61204;49.980;8.358;2023-01-04T15:26:33;100937.03;;;10.55
72278;BMP280;61204;49.980;8.358;2023-01-04T15:28:59;100933.69;;;10.57
72278;BMP280;61204;49.980;8.358;2023-01-04T15:31:24;100934.41;;;10.57
72278;BMP280;61204;49.980;8.358;2023-01-04T15:33:50;100941.97;;;10.67
72278;BMP280;61204;49.980;8.358;2023-01-04T15:36:16;100933.00;;;10.56
72278;BMP280;61204;49.980;8.358;2023-01-04T15:38:45;100930.09;;;10.54
72278;BMP280;61204;49.980;8.358;2023-01-04T15:41:12;100934.75;;;10.61
72278;BMP280;61204;49.980;8.358;2023-01-04T15:43:59;100931.69;;;10.57
72278;BMP280;61204;49.980;8.358;2023-01-04T15:46:25;100939.50;;;10.61
72278;BMP280;61204;49.980;8.358;2023-01-04T15:48:51;100928.53;;;10.61
72278;BMP280;61204;49.980;8.358;2023-01-04T15:51:17;100924.34;;;10.60
72278;BMP280;61204;49.980;8.358;2023-01-04T15:53:42;100921.03;;;10.61
72278;BMP280;61204;49.980;8.358;2023-01-04T15:56:11;100937.66;;;10.64
72278;BMP280;61204;49.980;8.358;2023-01-04T15:58:38;100938.94;;;10.62
72278;BMP280;61204;49.980;8.358;2023-01-04T16:01:08;100923.06;;;10.61
72278;BMP280;61204;49.980;8.358;2023-01-04T16:03:35;100916.56;;;10.66
72278;BMP280;61204;49.980;8.358;2023-01-04T16:06:05;100915.28;;;10.67
72278;BMP280;61204;49.980;8.358;2023-01-04T16:08:33;100902.41;;;10.60
72278;BMP280;61204;49.980;8.358;2023-01-04T16:11:06;100901.38;;;10.55
72278;BMP280;61204;49.980;8.358;2023-01-04T16:13:43;100903.13;;;10.60
72278;BMP280;61204;49.980;8.358;2023-01-04T16:16:09;100886.84;;;10.62
72278;BMP280;61204;49.980;8.358;2023-01-04T16:18:35;100900.78;;;10.57
72278;BMP280;61204;49.980;8.358;2023-01-04T16:21:05;100888.72;;;10.60
72278;BMP280;61204;49.980;8.358;2023-01-04T16:23:32;100900.00;;;10.64
72278;BMP280;61204;49.980;8.358;2023-01-04T16:26:06;100891.59;;;10.62
72278;BMP280;61204;49.980;8.358;2023-01-04T16:28:40;100884.97;;;10.65
72278;BMP280;61204;49.980;8.358;2023-01-04T16:31:05;100882.81;;;10.64
72278;BMP280;61204;49.980;8.358;2023-01-04T16:33:33;100877.00;;;10.59
72278;BMP280;61204;49.980;8.358;2023-01-04T16:36:01;100867.53;;;10.70
72278;BMP280;61204;49.980;8.358;2023-01-04T16:38:30;100869.84;;;10.74
72278;BMP280;61204;49.980;8.358;2023-01-04T16:40:56;100871.00;;;10.71
72278;BMP280;61204;49.980;8.358;2023-01-04T16:43:24;100864.06;;;10.70
72278;BMP280;61204;49.980;8.358;2023-01-04T16:45:52;100869.41;;;10.68